createdAt,value
2019-02-14T00:00:23.707Z,7.70
2019-02-14T00:02:57.652Z,7.70
2019-02-14T00:05:41.056Z,7.70
2019-02-14T00:08:14.676Z,7.60
2019-02-14T00:10:48.332Z,7.60
2019-02-14T00:13:21.942Z,7.60
2019-02-14T00:15:55.578Z,7.60
2019-02-14T00:18:31.176Z,7.60
2019-02-14T00:21:04.879Z,7.60
2019-02-14T00:23:38.808Z,7.60
2019-02-14T00:26:12.490Z,7.50
2019-02-14T00:28:46.184Z,7.60
2019-02-14T00:31:19.798Z,7.50
2019-02-14T00:33:53.415Z,7.50
2019-02-14T00:36:27.337Z,7.50
2019-02-14T00:39:00.988Z,7.50
2019-02-14T00:41:34.945Z,7.50
2019-02-14T00:44:08.562Z,7.50
2019-02-14T00:46:42.180Z,7.50
2019-02-14T00:49:15.782Z,7.50
2019-02-14T00:51:49.373Z,7.50
2019-02-14T00:54:22.986Z,7.50
2019-02-14T00:56:56.575Z,7.50
2019-02-14T00:59:42.921Z,7.50
2019-02-14T01:02:16.599Z,7.40
2019-02-14T01:04:50.199Z,7.40
2019-02-14T01:07:33.029Z,7.40
2019-02-14T01:10:07.071Z,7.30
2019-02-14T01:12:40.758Z,7.40
2019-02-14T01:15:16.139Z,7.40
2019-02-14T01:17:49.752Z,7.30
2019-02-14T01:20:23.408Z,7.30
2019-02-14T01:22:57.048Z,7.30
2019-02-14T01:25:30.631Z,7.30
2019-02-14T01:28:04.319Z,7.30
2019-02-14T01:30:37.933Z,7.30
2019-02-14T01:33:11.558Z,7.40
2019-02-14T01:35:45.327Z,7.30
2019-02-14T01:38:20.941Z,7.30
2019-02-14T01:40:54.527Z,7.30
2019-02-14T01:43:31.354Z,7.30
2019-02-14T01:46:05.111Z,7.30
2019-02-14T01:48:38.714Z,7.30
2019-02-14T01:51:12.300Z,7.30
2019-02-14T01:53:45.934Z,7.20
2019-02-14T01:56:19.536Z,7.20
2019-02-14T01:58:53.201Z,7.20
2019-02-14T02:01:26.878Z,7.20
2019-02-14T02:04:00.543Z,7.20
2019-02-14T02:06:40.754Z,7.20
2019-02-14T02:09:14.346Z,7.20
2019-02-14T02:11:48.034Z,7.20
2019-02-14T02:14:24.690Z,7.10
2019-02-14T02:17:02.392Z,7.10
2019-02-14T02:19:35.972Z,7.10
2019-02-14T02:22:10.095Z,7.10
2019-02-14T02:24:43.711Z,7.10
2019-02-14T02:27:17.418Z,7.10
2019-02-14T02:29:51.033Z,7.10
2019-02-14T02:32:24.625Z,7.10
2019-02-14T02:34:58.246Z,7.10
2019-02-14T02:37:41.240Z,7.10
2019-02-14T02:40:14.936Z,7.10
2019-02-14T02:42:50.632Z,7.10
2019-02-14T02:45:24.347Z,7.10
2019-02-14T02:48:00.938Z,7.10
2019-02-14T02:50:34.543Z,7.10
2019-02-14T02:53:16.719Z,7.10
2019-02-14T02:55:50.476Z,7.00
2019-02-14T02:58:24.077Z,7.00
2019-02-14T03:00:57.690Z,7.00
2019-02-14T03:03:31.300Z,7.00
2019-02-14T03:06:10.529Z,7.00
2019-02-14T03:08:40.374Z,7.00
2019-02-14T03:11:13.991Z,7.00
2019-02-14T03:13:47.647Z,7.00
2019-02-14T03:16:21.271Z,7.00
2019-02-14T03:18:56.266Z,7.00
2019-02-14T03:21:29.887Z,6.90
2019-02-14T03:24:07.219Z,6.90
2019-02-14T03:26:40.843Z,7.00
2019-02-14T03:29:14.423Z,6.90
2019-02-14T03:31:48.049Z,6.90
2019-02-14T03:34:21.702Z,7.00
2019-02-14T03:37:07.287Z,6.90
2019-02-14T03:39:40.875Z,7.00
2019-02-14T03:42:15.459Z,7.00
2019-02-14T03:44:49.061Z,6.90
2019-02-14T03:47:22.983Z,7.00
2019-02-14T03:49:59.673Z,6.90
2019-02-14T03:52:33.426Z,6.90
2019-02-14T03:55:09.092Z,6.90
2019-02-14T03:57:42.718Z,6.90
2019-02-14T04:00:18.211Z,6.90
2019-02-14T04:02:51.844Z,6.90
2019-02-14T04:05:25.462Z,6.90
2019-02-14T04:08:02.251Z,6.90
2019-02-14T04:10:35.897Z,6.90
2019-02-14T04:13:09.931Z,6.90
2019-02-14T04:15:43.711Z,6.90
2019-02-14T04:18:17.303Z,6.90
2019-02-14T04:20:54.183Z,6.90
2019-02-14T04:23:27.835Z,6.90
2019-02-14T04:26:01.459Z,6.80
2019-02-14T04:28:50.251Z,6.90
2019-02-14T04:31:23.948Z,6.80
2019-02-14T04:33:57.550Z,6.80
2019-02-14T04:36:36.069Z,6.80
2019-02-14T04:39:06.960Z,6.80
2019-02-14T04:41:40.578Z,6.80
2019-02-14T04:44:14.178Z,6.80
2019-02-14T04:46:47.869Z,6.80
2019-02-14T04:49:21.420Z,6.80
2019-02-14T04:51:55.079Z,6.80
2019-02-14T04:54:28.675Z,6.80
2019-02-14T04:57:11.986Z,6.80
2019-02-14T04:59:45.603Z,6.80
2019-02-14T05:02:19.482Z,6.80
2019-02-14T05:04:53.102Z,6.80
2019-02-14T05:07:26.720Z,6.80
2019-02-14T05:10:00.406Z,6.80
2019-02-14T05:12:33.966Z,6.80
2019-02-14T05:15:09.716Z,6.80
2019-02-14T05:17:43.336Z,6.80
2019-02-14T05:20:16.930Z,6.70
2019-02-14T05:22:50.617Z,6.80
2019-02-14T05:25:36.315Z,6.70
2019-02-14T05:28:09.939Z,6.70
2019-02-14T05:30:43.602Z,6.70
2019-02-14T05:33:17.229Z,6.70
2019-02-14T05:35:50.826Z,6.70
2019-02-14T05:38:24.876Z,6.70
2019-02-14T05:40:58.476Z,6.70
2019-02-14T05:43:32.453Z,6.70
2019-02-14T05:46:06.122Z,6.70
2019-02-14T05:48:39.741Z,6.70
2019-02-14T05:51:25.477Z,6.60
2019-02-14T05:53:59.191Z,6.70
2019-02-14T05:56:44.936Z,6.70
2019-02-14T05:59:18.546Z,6.60
2019-02-14T06:01:52.167Z,6.60
2019-02-14T06:04:44.294Z,6.60
2019-02-14T06:07:17.909Z,6.60
2019-02-14T06:09:51.545Z,6.60
2019-02-14T06:12:25.124Z,6.60
2019-02-14T06:15:02.336Z,6.60
2019-02-14T06:17:35.925Z,6.60
2019-02-14T06:20:11.082Z,6.60
2019-02-14T06:22:44.674Z,6.60
2019-02-14T06:25:33.776Z,6.50
2019-02-14T06:28:13.719Z,6.50
2019-02-14T06:30:54.051Z,6.50
2019-02-14T06:33:27.723Z,6.50
2019-02-14T06:36:01.343Z,6.50
2019-02-14T06:38:34.970Z,6.50
2019-02-14T06:41:08.680Z,6.50
2019-02-14T06:43:42.347Z,6.50
2019-02-14T06:46:15.967Z,6.60
2019-02-14T06:48:53.083Z,6.50
2019-02-14T06:51:26.726Z,6.50
2019-02-14T06:54:24.465Z,6.60
2019-02-14T06:57:05.026Z,6.60
2019-02-14T06:59:38.611Z,6.60
2019-02-14T07:02:12.239Z,6.60
2019-02-14T07:04:45.835Z,6.60
2019-02-14T07:07:21.535Z,6.60
2019-02-14T07:09:55.157Z,6.60
2019-02-14T07:12:28.852Z,6.60
2019-02-14T07:15:12.540Z,6.60
2019-02-14T07:17:49.211Z,6.60
2019-02-14T07:20:22.836Z,6.60
2019-02-14T07:23:02.576Z,6.60
2019-02-14T07:25:36.567Z,6.60
2019-02-14T07:28:10.230Z,6.60
2019-02-14T07:30:43.868Z,6.60
2019-02-14T07:33:17.523Z,6.60
2019-02-14T07:35:51.150Z,6.60
2019-02-14T07:38:24.788Z,6.60
2019-02-14T07:40:58.495Z,6.70
2019-02-14T07:43:32.147Z,6.70
2019-02-14T07:46:07.255Z,6.70
2019-02-14T07:48:46.343Z,6.70
2019-02-14T07:51:28.775Z,6.80
2019-02-14T07:54:07.862Z,6.80
2019-02-14T07:56:52.505Z,6.90
2019-02-14T07:59:26.323Z,6.90
2019-02-14T08:01:59.994Z,7.00
2019-02-14T08:04:33.611Z,7.80
2019-02-14T08:07:07.236Z,7.90
2019-02-14T08:09:50.354Z,7.60
2019-02-14T08:12:24.121Z,7.40
2019-02-14T08:14:57.760Z,7.30
2019-02-14T08:17:31.341Z,7.20
2019-02-14T08:20:07.911Z,7.10
2019-02-14T08:22:41.580Z,7.10
2019-02-14T08:25:15.283Z,7.10
2019-02-14T08:27:48.862Z,7.10
2019-02-14T08:30:22.997Z,7.20
2019-02-14T08:32:56.620Z,7.20
2019-02-14T08:35:30.308Z,7.20
2019-02-14T08:38:04.248Z,7.20
2019-02-14T08:40:37.883Z,7.20
2019-02-14T08:43:11.474Z,7.40
2019-02-14T08:45:51.195Z,7.60
2019-02-14T08:48:24.904Z,7.70
2019-02-14T08:50:58.476Z,7.80
2019-02-14T08:53:44.080Z,7.80
2019-02-14T08:56:17.767Z,8.00
2019-02-14T08:58:51.386Z,9.00
2019-02-14T09:01:30.669Z,9.30
2019-02-14T09:04:04.431Z,9.40
2019-02-14T09:06:41.706Z,9.50
2019-02-14T09:09:15.647Z,9.30
2019-02-14T09:11:49.334Z,9.40
2019-02-14T09:14:22.959Z,9.10
2019-02-14T09:16:56.543Z,9.00
2019-02-14T09:19:30.248Z,9.00
2019-02-14T09:22:03.904Z,9.20
2019-02-14T09:24:37.514Z,9.60
2019-02-14T09:27:11.247Z,9.60
2019-02-14T09:29:48.567Z,10.30
2019-02-14T09:32:24.466Z,11.60
2019-02-14T09:34:58.679Z,11.90
2019-02-14T09:37:32.850Z,12.80
2019-02-14T09:40:15.115Z,13.10
2019-02-14T09:42:49.284Z,13.00
2019-02-14T09:45:23.541Z,13.00
2019-02-14T09:47:57.722Z,12.30
2019-02-14T09:50:47.162Z,12.20
2019-02-14T09:53:21.342Z,11.60
2019-02-14T09:56:07.487Z,11.30
2019-02-14T09:58:45.162Z,11.80
2019-02-14T10:01:19.440Z,12.80
2019-02-14T10:03:53.626Z,12.90
2019-02-14T10:06:36.174Z,11.80
2019-02-14T10:09:05.802Z,11.30
2019-02-14T10:11:40.351Z,11.60
2019-02-14T10:14:42.136Z,11.40
2019-02-14T10:17:21.984Z,11.50
2019-02-14T10:19:52.574Z,11.70
2019-02-14T10:22:26.738Z,12.20
2019-02-14T10:25:00.946Z,11.30
2019-02-14T10:27:35.186Z,10.70
2019-02-14T10:30:25.034Z,10.60
2019-02-14T10:32:59.223Z,10.20
2019-02-14T10:35:33.431Z,10.30
2019-02-14T10:38:07.675Z,10.00
2019-02-14T10:40:41.997Z,10.70
2019-02-14T10:43:16.213Z,11.20
2019-02-14T10:45:50.495Z,10.50
2019-02-14T10:48:38.697Z,9.60
2019-02-14T10:51:12.977Z,9.10
2019-02-14T10:53:47.231Z,9.00
2019-02-14T10:56:20.991Z,8.90
2019-02-14T10:59:04.568Z,8.90
2019-02-14T11:01:38.313Z,8.90
2019-02-14T11:04:12.053Z,8.90
2019-02-14T11:06:50.366Z,8.80
2019-02-14T11:09:27.519Z,8.90
2019-02-14T11:12:01.203Z,9.00
2019-02-14T11:14:38.546Z,8.90
2019-02-14T11:17:12.176Z,8.80
2019-02-14T11:19:45.829Z,8.60
2019-02-14T11:22:25.618Z,8.70
2019-02-14T11:25:02.282Z,8.60
2019-02-14T11:27:36.097Z,8.40
2019-02-14T11:30:12.645Z,8.20
2019-02-14T11:32:46.201Z,8.00
2019-02-14T11:35:22.945Z,8.10
2019-02-14T11:37:56.653Z,8.10
2019-02-14T11:40:30.347Z,8.10
2019-02-14T11:43:04.103Z,8.20
2019-02-14T11:45:37.731Z,8.10
2019-02-14T11:48:11.311Z,7.80
2019-02-14T11:50:47.963Z,7.80
2019-02-14T11:53:21.676Z,7.90
2019-02-14T11:55:55.569Z,8.00
2019-02-14T11:58:49.332Z,8.10
2019-02-14T12:01:23.941Z,8.30
2019-02-14T12:03:57.636Z,8.40
2019-02-14T12:06:31.284Z,8.40
2019-02-14T12:09:06.480Z,8.00
2019-02-14T12:11:40.112Z,8.00
2019-02-14T12:14:19.907Z,8.30
2019-02-14T12:17:03.644Z,8.40
2019-02-14T12:19:37.244Z,8.50
2019-02-14T12:22:14.696Z,8.60
2019-02-14T12:24:48.334Z,8.50
2019-02-14T12:27:26.882Z,8.60
2019-02-14T12:30:00.497Z,8.60
2019-02-14T12:32:37.591Z,8.90
2019-02-14T12:35:11.356Z,8.80
2019-02-14T12:37:44.956Z,8.90
2019-02-14T12:40:21.680Z,8.90
2019-02-14T12:42:55.252Z,9.20
2019-02-14T12:45:29.016Z,9.40
2019-02-14T12:48:14.685Z,9.80
2019-02-14T12:50:48.304Z,9.90
2019-02-14T12:53:21.891Z,10.10
2019-02-14T12:56:03.188Z,10.30
2019-02-14T12:58:36.845Z,10.60
2019-02-14T13:01:11.042Z,10.50
2019-02-14T13:03:51.507Z,10.20
2019-02-14T13:06:26.151Z,10.30
2019-02-14T13:09:00.315Z,10.20
2019-02-14T13:11:33.952Z,10.10
2019-02-14T13:14:07.658Z,9.70
2019-02-14T13:16:51.623Z,9.80
2019-02-14T13:19:27.353Z,9.90
2019-02-14T13:22:01.011Z,10.00
2019-02-14T13:24:34.704Z,10.20
2019-02-14T13:27:11.635Z,10.30
2019-02-14T13:29:45.259Z,10.00
2019-02-14T13:32:18.900Z,9.90
2019-02-14T13:34:52.503Z,10.10
2019-02-14T13:37:26.133Z,9.70
2019-02-14T13:40:11.767Z,9.70
2019-02-14T13:42:45.486Z,9.80
2019-02-14T13:45:22.248Z,9.70
2019-02-14T13:48:03.311Z,9.60
2019-02-14T13:50:36.908Z,9.50
2019-02-14T13:53:10.930Z,9.70
2019-02-14T13:55:47.625Z,9.70
2019-02-14T13:58:27.232Z,9.60
2019-02-14T14:01:00.893Z,9.70
2019-02-14T14:03:34.597Z,9.70
2019-02-14T14:06:14.295Z,9.70
2019-02-14T14:08:48.187Z,9.70
2019-02-14T14:11:21.847Z,9.80
2019-02-14T14:14:02.547Z,9.70
2019-02-14T14:16:36.160Z,9.70
2019-02-14T14:19:09.778Z,9.70
2019-02-14T14:21:43.535Z,9.60
2019-02-14T14:24:26.752Z,9.70
2019-02-14T14:27:00.443Z,9.60
2019-02-14T14:29:34.400Z,9.60
2019-02-14T14:32:08.007Z,9.70
2019-02-14T14:34:41.752Z,9.60
2019-02-14T14:37:15.375Z,9.70
2019-02-14T14:39:48.995Z,9.60
2019-02-14T14:42:24.219Z,9.60
2019-02-14T14:44:57.965Z,9.60
2019-02-14T14:47:31.579Z,9.50
2019-02-14T14:50:08.600Z,9.50
2019-02-14T14:52:42.243Z,9.50
2019-02-14T14:55:15.911Z,9.40
2019-02-14T14:57:49.547Z,9.40
2019-02-14T15:00:23.141Z,9.40
2019-02-14T15:02:56.838Z,9.30
2019-02-14T15:05:30.579Z,9.30
2019-02-14T15:08:06.873Z,9.20
2019-02-14T15:11:05.928Z,9.10
2019-02-14T15:13:39.626Z,9.10
2019-02-14T15:16:13.315Z,9.10
2019-02-14T15:18:46.913Z,9.00
2019-02-14T15:21:20.931Z,9.00
2019-02-14T15:23:54.522Z,9.00
2019-02-14T15:26:28.139Z,8.90
2019-02-14T15:29:01.744Z,8.90
2019-02-14T15:31:35.352Z,8.80
2019-02-14T15:34:12.067Z,8.70
2019-02-14T15:36:47.206Z,8.60
2019-02-14T15:39:34.558Z,8.60
2019-02-14T15:42:08.180Z,8.60
2019-02-14T15:44:41.776Z,8.50
2019-02-14T15:47:34.772Z,8.50
2019-02-14T15:50:09.095Z,8.40
2019-02-14T15:52:42.839Z,8.30
2019-02-14T15:55:26.703Z,8.10
2019-02-14T15:58:00.406Z,7.90
2019-02-14T16:00:35.036Z,7.80
2019-02-14T16:03:17.346Z,7.60
2019-02-14T16:05:50.727Z,7.40
2019-02-14T16:08:24.359Z,7.40
2019-02-14T16:11:02.093Z,7.30
2019-02-14T16:13:35.691Z,7.10
2019-02-14T16:16:10.651Z,7.00
2019-02-14T16:18:44.852Z,6.90
2019-02-14T16:21:19.682Z,6.80
2019-02-14T16:24:01.178Z,6.50
2019-02-14T16:26:40.805Z,6.50
2019-02-14T16:29:14.447Z,6.30
2019-02-14T16:31:51.171Z,6.10
2019-02-14T16:34:24.787Z,6.00
2019-02-14T16:36:58.381Z,5.80
2019-02-14T16:39:41.397Z,5.60
2019-02-14T16:42:15.071Z,5.40
2019-02-14T16:44:50.986Z,5.30
2019-02-14T16:47:24.642Z,5.10
2019-02-14T16:50:04.063Z,5.00
2019-02-14T16:52:38.930Z,4.90
2019-02-14T16:55:13.983Z,4.90
2019-02-14T16:57:47.606Z,4.90
2019-02-14T17:00:21.259Z,4.80
2019-02-14T17:02:54.867Z,4.60
2019-02-14T17:05:37.917Z,4.50
2019-02-14T17:08:11.562Z,4.50
2019-02-14T17:10:51.580Z,4.40
2019-02-14T17:13:25.189Z,4.30
2019-02-14T17:16:01.811Z,4.20
2019-02-14T17:18:35.433Z,4.20
2019-02-14T17:21:09.130Z,4.10
2019-02-14T17:23:42.723Z,4.10
2019-02-14T17:26:16.349Z,4.00
2019-02-14T17:28:49.927Z,3.90
2019-02-14T17:31:23.645Z,3.90
2019-02-14T17:34:14.097Z,3.80
2019-02-14T17:36:47.798Z,4.00
2019-02-14T17:39:21.394Z,3.90
2019-02-14T17:42:04.560Z,4.00
2019-02-14T17:44:38.179Z,4.00
2019-02-14T17:47:11.804Z,4.10
2019-02-14T17:49:51.389Z,4.10
2019-02-14T17:52:25.009Z,4.10
2019-02-14T17:55:03.465Z,4.10
2019-02-14T17:57:37.088Z,4.10
2019-02-14T18:00:12.782Z,3.90
2019-02-14T18:02:51.389Z,3.70
2019-02-14T18:05:25.535Z,3.60
2019-02-14T18:08:04.148Z,3.40
2019-02-14T18:10:37.768Z,3.30
2019-02-14T18:13:16.577Z,3.30
2019-02-14T18:15:50.215Z,3.20
2019-02-14T18:18:27.632Z,3.20
2019-02-14T18:21:01.407Z,3.20
2019-02-14T18:23:39.102Z,3.20
2019-02-14T18:26:14.674Z,3.10
2019-02-14T18:28:51.978Z,3.00
2019-02-14T18:31:25.564Z,2.90
2019-02-14T18:34:03.378Z,2.80
2019-02-14T18:36:37.024Z,2.80
2019-02-14T18:39:16.996Z,2.70
2019-02-14T18:41:50.659Z,2.70
2019-02-14T18:44:27.743Z,2.60
2019-02-14T18:47:01.330Z,2.50
2019-02-14T18:49:39.366Z,2.50
2019-02-14T18:52:13.028Z,2.40
2019-02-14T18:54:46.976Z,2.30
2019-02-14T18:57:28.504Z,2.40
2019-02-14T19:00:02.195Z,2.30
2019-02-14T19:02:35.803Z,2.40
2019-02-14T19:05:16.512Z,2.40
2019-02-14T19:07:50.207Z,2.30
2019-02-14T19:10:23.858Z,2.40
2019-02-14T19:12:57.559Z,2.40
2019-02-14T19:15:40.316Z,2.30
2019-02-14T19:18:13.951Z,2.20
2019-02-14T19:20:52.648Z,2.00
2019-02-14T19:23:26.356Z,1.90
2019-02-14T19:25:59.981Z,1.90
2019-02-14T19:28:36.767Z,2.00
2019-02-14T19:31:10.400Z,2.00
2019-02-14T19:33:44.346Z,1.90
2019-02-14T19:36:27.003Z,1.90
2019-02-14T19:39:00.611Z,1.80
2019-02-14T19:41:34.308Z,1.80
2019-02-14T19:44:10.946Z,1.80
2019-02-14T19:46:44.601Z,1.80
2019-02-14T19:49:18.286Z,1.70
2019-02-14T19:52:03.714Z,1.60
2019-02-14T19:54:37.394Z,1.60
2019-02-14T19:57:11.070Z,1.50
2019-02-14T19:59:50.743Z,1.50
2019-02-14T20:02:24.342Z,1.50
2019-02-14T20:04:57.982Z,1.50
2019-02-14T20:07:39.823Z,1.40
2019-02-14T20:10:16.892Z,1.50
2019-02-14T20:12:50.514Z,1.50
2019-02-14T20:15:24.267Z,1.50
2019-02-14T20:17:57.900Z,1.50
2019-02-14T20:20:37.571Z,1.40
2019-02-14T20:23:11.250Z,1.40
2019-02-14T20:25:48.057Z,1.30
2019-02-14T20:28:21.784Z,1.30
2019-02-14T20:30:55.384Z,1.40
2019-02-14T20:33:29.006Z,1.40
2019-02-14T20:36:15.005Z,1.30
2019-02-14T20:38:48.724Z,1.20
2019-02-14T20:41:22.392Z,1.20
2019-02-14T20:44:04.335Z,1.10
2019-02-14T20:46:38.009Z,1.00
2019-02-14T20:49:12.654Z,0.90
2019-02-14T20:51:46.238Z,1.10
2019-02-14T20:54:20.040Z,1.00
2019-02-14T20:56:56.801Z,0.90
2019-02-14T20:59:30.512Z,0.90
2019-02-14T21:02:07.385Z,0.80
2019-02-14T21:04:41.142Z,0.90
2019-02-14T21:07:14.819Z,0.80
2019-02-14T21:09:48.440Z,0.80
2019-02-14T21:12:22.114Z,0.80
2019-02-14T21:14:58.871Z,0.70
2019-02-14T21:17:32.540Z,0.70
2019-02-14T21:20:11.306Z,0.70
2019-02-14T21:22:44.994Z,0.80
2019-02-14T21:25:22.420Z,1.10
2019-02-14T21:27:53.930Z,1.30
2019-02-14T21:30:34.960Z,1.50
2019-02-14T21:33:06.167Z,1.60
2019-02-14T21:35:39.767Z,1.60
2019-02-14T21:38:13.460Z,1.80
2019-02-14T21:40:47.094Z,1.90
2019-02-14T21:43:21.721Z,1.90
2019-02-14T21:45:55.379Z,1.90
2019-02-14T21:48:28.973Z,1.90
2019-02-14T21:51:02.607Z,1.90
2019-02-14T21:53:36.323Z,2.00
2019-02-14T21:56:10.027Z,2.00
2019-02-14T21:58:52.941Z,2.00
2019-02-14T22:01:29.852Z,2.00
2019-02-14T22:04:27.925Z,2.00
2019-02-14T22:07:01.547Z,2.00
2019-02-14T22:09:35.279Z,2.00
2019-02-14T22:12:08.897Z,2.00
2019-02-14T22:14:49.530Z,1.90
2019-02-14T22:17:23.119Z,2.00
2019-02-14T22:19:56.818Z,2.00
2019-02-14T22:22:30.413Z,2.10
2019-02-14T22:25:10.382Z,2.00
2019-02-14T22:27:43.961Z,2.00
2019-02-14T22:30:18.552Z,2.00
2019-02-14T22:33:07.493Z,2.00
2019-02-14T22:35:41.153Z,2.00
2019-02-14T22:38:14.782Z,1.90
2019-02-14T22:40:55.087Z,1.90
2019-02-14T22:43:28.718Z,2.00
2019-02-14T22:46:02.398Z,2.00
2019-02-14T22:48:36.008Z,1.90
2019-02-14T22:51:09.625Z,2.00
2019-02-14T22:53:43.253Z,2.00
2019-02-14T22:56:16.880Z,2.10
2019-02-14T22:58:50.801Z,2.20
2019-02-14T23:01:24.565Z,2.30
2019-02-14T23:03:58.297Z,2.30
2019-02-14T23:06:34.062Z,2.40
2019-02-14T23:09:23.716Z,2.30
2019-02-14T23:11:57.354Z,2.40
2019-02-14T23:14:30.979Z,2.40
2019-02-14T23:17:10.332Z,2.30
2019-02-14T23:19:43.919Z,2.20
2019-02-14T23:22:17.551Z,2.00
2019-02-14T23:24:51.148Z,1.80
2019-02-14T23:27:24.769Z,1.60
2019-02-14T23:29:58.664Z,1.40
2019-02-14T23:32:32.256Z,1.20
2019-02-14T23:35:06.412Z,1.10
2019-02-14T23:37:40.051Z,1.00
2019-02-14T23:40:13.733Z,0.70
2019-02-14T23:43:04.728Z,0.70
2019-02-14T23:45:35.148Z,0.50
2019-02-14T23:48:08.771Z,0.30
2019-02-14T23:50:42.356Z,0.30
2019-02-14T23:53:15.988Z,0.70
2019-02-14T23:55:49.573Z,0.70
2019-02-14T23:58:23.195Z,0.70
